createdAt,value
2019-01-25T00:00:26.586Z,86.23
2019-01-25T00:02:54.960Z,70.87
2019-01-25T00:05:23.399Z,71.10
2019-01-25T00:07:53.238Z,74.93
2019-01-25T00:10:21.608Z,68.83
2019-01-25T00:12:49.983Z,90.57
2019-01-25T00:15:18.388Z,94.10
2019-01-25T00:17:46.762Z,85.23
2019-01-25T00:20:15.427Z,72.87
2019-01-25T00:22:45.103Z,86.03
2019-01-25T00:25:13.476Z,69.00
2019-01-25T00:27:42.243Z,86.53
2019-01-25T00:30:16.111Z,78.10
2019-01-25T00:32:44.852Z,73.87
2019-01-25T00:35:13.226Z,72.87
2019-01-25T00:37:41.748Z,80.30
2019-01-25T00:40:17.998Z,84.53
2019-01-25T00:42:47.006Z,67.83
2019-01-25T00:45:15.380Z,72.80
2019-01-25T00:47:43.755Z,71.40
2019-01-25T00:50:15.671Z,64.27
2019-01-25T00:52:44.042Z,72.80
2019-01-25T00:55:12.414Z,83.33
2019-01-25T00:57:40.835Z,73.60
2019-01-25T01:00:18.031Z,66.90
2019-01-25T01:02:47.171Z,69.37
2019-01-25T01:05:15.610Z,67.20
2019-01-25T01:07:44.258Z,71.77
2019-01-25T01:10:15.241Z,68.83
2019-01-25T01:12:43.622Z,75.60
2019-01-25T01:15:13.727Z,58.73
2019-01-25T01:17:42.703Z,66.03
2019-01-25T01:20:13.879Z,56.17
2019-01-25T01:22:42.247Z,59.83
2019-01-25T01:25:11.419Z,61.00
2019-01-25T01:27:39.787Z,63.27
2019-01-25T01:30:12.008Z,59.10
2019-01-25T01:32:40.411Z,58.53
2019-01-25T01:35:09.083Z,59.50
2019-01-25T01:37:37.459Z,65.20
2019-01-25T01:40:13.283Z,68.27
2019-01-25T01:42:41.660Z,63.37
2019-01-25T01:45:10.033Z,64.13
2019-01-25T01:47:38.458Z,69.10
2019-01-25T01:50:10.023Z,61.50
2019-01-25T01:52:38.400Z,69.20
2019-01-25T01:55:07.124Z,66.10
2019-01-25T01:57:35.498Z,56.37
2019-01-25T02:00:06.076Z,55.40
2019-01-25T02:02:34.872Z,53.93
2019-01-25T02:05:03.596Z,56.73
2019-01-25T02:07:31.964Z,59.67
2019-01-25T02:10:00.527Z,63.70
2019-01-25T02:12:29.980Z,58.20
2019-01-25T02:14:58.479Z,51.60
2019-01-25T02:17:27.171Z,60.13
2019-01-25T02:19:55.840Z,61.03
2019-01-25T02:22:24.215Z,51.87
2019-01-25T02:24:54.343Z,46.43
2019-01-25T02:27:23.035Z,58.77
2019-01-25T02:29:51.520Z,54.97
2019-01-25T02:32:19.924Z,58.03
2019-01-25T02:34:48.296Z,59.00
2019-01-25T02:37:16.671Z,53.33
2019-01-25T02:39:45.076Z,58.50
2019-01-25T02:42:13.448Z,55.17
2019-01-25T02:44:41.821Z,74.43
2019-01-25T02:47:11.804Z,55.47
2019-01-25T02:49:40.175Z,61.70
2019-01-25T02:52:08.564Z,60.47
2019-01-25T02:54:36.987Z,54.07
2019-01-25T02:57:05.368Z,64.87
2019-01-25T02:59:33.738Z,62.10
2019-01-25T03:02:02.160Z,57.93
2019-01-25T03:04:30.533Z,57.90
2019-01-25T03:06:59.208Z,57.03
2019-01-25T03:09:27.836Z,69.73
2019-01-25T03:11:56.207Z,56.03
2019-01-25T03:14:26.820Z,60.27
2019-01-25T03:16:55.228Z,68.80
2019-01-25T03:19:23.918Z,55.50
2019-01-25T03:21:52.292Z,59.57
2019-01-25T03:24:20.703Z,60.60
2019-01-25T03:26:49.075Z,64.67
2019-01-25T03:29:17.449Z,64.77
2019-01-25T03:31:47.207Z,49.37
2019-01-25T03:34:15.571Z,66.47
2019-01-25T03:36:44.039Z,59.13
2019-01-25T03:39:12.459Z,73.07
2019-01-25T03:41:40.903Z,73.50
2019-01-25T03:44:09.333Z,65.70
2019-01-25T03:46:37.808Z,49.57
2019-01-25T03:49:06.183Z,54.07
2019-01-25T03:51:34.556Z,66.77
2019-01-25T03:54:03.879Z,57.93
2019-01-25T03:56:32.383Z,69.67
2019-01-25T03:59:00.752Z,56.90
2019-01-25T04:01:29.156Z,63.37
2019-01-25T04:03:57.532Z,62.17
2019-01-25T04:06:25.906Z,59.57
2019-01-25T04:08:54.322Z,51.37
2019-01-25T04:11:22.705Z,60.30
2019-01-25T04:13:51.071Z,58.27
2019-01-25T04:16:21.064Z,62.03
2019-01-25T04:18:49.449Z,67.60
2019-01-25T04:21:17.821Z,51.93
2019-01-25T04:23:46.228Z,48.63
2019-01-25T04:26:14.605Z,52.63
2019-01-25T04:28:42.984Z,60.63
2019-01-25T04:31:11.393Z,60.90
2019-01-25T04:33:39.764Z,53.80
2019-01-25T04:36:08.135Z,51.33
2019-01-25T04:38:36.923Z,51.03
2019-01-25T04:41:11.537Z,65.67
2019-01-25T04:43:35.313Z,69.00
2019-01-25T04:46:03.719Z,57.43
2019-01-25T04:48:32.162Z,51.07
2019-01-25T04:51:02.171Z,57.20
2019-01-25T04:53:32.228Z,56.87
2019-01-25T04:56:00.603Z,61.63
2019-01-25T04:58:28.980Z,54.47
2019-01-25T05:01:00.043Z,55.87
2019-01-25T05:03:28.419Z,60.40
2019-01-25T05:05:56.789Z,63.17
2019-01-25T05:08:25.200Z,66.97
2019-01-25T05:10:53.573Z,58.70
2019-01-25T05:13:21.965Z,60.50
2019-01-25T05:15:50.361Z,63.13
2019-01-25T05:18:18.868Z,60.60
2019-01-25T05:20:47.556Z,63.70
2019-01-25T05:23:16.623Z,68.33
2019-01-25T05:25:44.991Z,64.50
2019-01-25T05:28:15.767Z,61.40
2019-01-25T05:30:56.640Z,62.63
2019-01-25T05:33:25.011Z,62.13
2019-01-25T05:35:53.383Z,57.00
2019-01-25T05:38:22.364Z,64.73
2019-01-25T05:40:50.741Z,63.73
2019-01-25T05:43:19.114Z,65.70
2019-01-25T05:45:47.524Z,64.20
2019-01-25T05:48:15.891Z,60.17
2019-01-25T05:50:44.263Z,59.87
2019-01-25T05:53:12.671Z,62.10
2019-01-25T05:55:41.051Z,56.43
2019-01-25T05:58:10.171Z,59.67
2019-01-25T06:00:41.328Z,54.90
2019-01-25T06:03:15.240Z,62.23
2019-01-25T06:05:43.781Z,57.10
2019-01-25T06:08:31.075Z,56.40
2019-01-25T06:11:00.991Z,52.23
2019-01-25T06:13:29.647Z,66.33
2019-01-25T06:15:58.304Z,69.03
2019-01-25T06:18:26.676Z,61.83
2019-01-25T06:20:57.665Z,57.97
2019-01-25T06:23:26.075Z,58.67
2019-01-25T06:25:56.092Z,64.27
2019-01-25T06:28:24.467Z,54.23
2019-01-25T06:30:52.877Z,67.37
2019-01-25T06:33:21.251Z,61.40
2019-01-25T06:35:49.629Z,72.97
2019-01-25T06:38:18.559Z,55.13
2019-01-25T06:40:46.944Z,65.83
2019-01-25T06:43:15.317Z,63.93
2019-01-25T06:45:43.728Z,65.70
2019-01-25T06:48:12.135Z,57.67
2019-01-25T06:50:40.523Z,59.97
2019-01-25T06:53:09.333Z,49.27
2019-01-25T06:55:37.731Z,48.57
2019-01-25T06:58:18.223Z,48.27
2019-01-25T07:00:54.269Z,43.10
2019-01-25T07:03:22.688Z,42.47
2019-01-25T07:05:51.060Z,46.40
2019-01-25T07:08:20.011Z,35.30
2019-01-25T07:10:48.456Z,44.67
2019-01-25T07:13:16.836Z,41.57
2019-01-25T07:15:45.212Z,28.10
2019-01-25T07:18:14.211Z,36.10
2019-01-25T07:20:42.909Z,32.77
2019-01-25T07:23:13.543Z,29.40
2019-01-25T07:25:41.945Z,34.47
2019-01-25T07:28:10.318Z,25.03
2019-01-25T07:30:38.725Z,25.47
2019-01-25T07:33:07.628Z,34.03
2019-01-25T07:35:36.482Z,26.80
2019-01-25T07:38:05.020Z,29.77
2019-01-25T07:40:33.816Z,25.10
2019-01-25T07:43:02.301Z,28.47
2019-01-25T07:45:30.676Z,30.83
2019-01-25T07:47:59.084Z,28.47
2019-01-25T07:50:27.465Z,28.77
2019-01-25T07:52:55.827Z,32.37
2019-01-25T07:55:24.236Z,33.30
2019-01-25T07:57:52.634Z,31.17
2019-01-25T08:00:21.000Z,27.20
2019-01-25T08:02:50.612Z,35.27
2019-01-25T08:05:18.992Z,26.90
2019-01-25T08:07:47.348Z,27.47
2019-01-25T08:10:22.894Z,30.37
2019-01-25T08:12:51.264Z,30.33
2019-01-25T08:15:24.869Z,31.83
2019-01-25T08:17:53.901Z,25.80
2019-01-25T08:20:22.271Z,23.20
2019-01-25T08:22:50.682Z,31.70
2019-01-25T08:25:20.803Z,28.77
2019-01-25T08:27:49.183Z,25.53
2019-01-25T08:30:22.178Z,31.97
2019-01-25T08:32:51.008Z,32.70
2019-01-25T08:35:19.416Z,22.30
2019-01-25T08:37:47.929Z,26.53
2019-01-25T08:40:18.245Z,28.00
2019-01-25T08:42:46.588Z,30.83
2019-01-25T08:45:16.197Z,31.00
2019-01-25T08:47:44.688Z,31.93
2019-01-25T08:50:18.987Z,27.47
2019-01-25T08:52:47.430Z,29.27
2019-01-25T08:55:16.388Z,29.70
2019-01-25T08:57:44.813Z,39.67
2019-01-25T09:00:16.079Z,35.60
2019-01-25T09:02:46.244Z,38.83
2019-01-25T09:05:14.956Z,34.83
2019-01-25T09:07:43.325Z,35.53
2019-01-25T09:10:14.069Z,38.17
2019-01-25T09:12:42.445Z,32.53
2019-01-25T09:15:19.650Z,32.70
2019-01-25T09:17:48.019Z,30.70
2019-01-25T09:20:19.222Z,34.47
2019-01-25T09:22:48.700Z,27.73
2019-01-25T09:25:17.214Z,29.60
2019-01-25T09:27:46.451Z,30.17
2019-01-25T09:30:23.419Z,27.77
2019-01-25T09:32:51.800Z,26.97
2019-01-25T09:35:20.169Z,35.07
2019-01-25T09:37:49.479Z,29.93
2019-01-25T09:40:21.533Z,33.60
2019-01-25T09:42:50.243Z,29.87
2019-01-25T09:45:18.660Z,33.23
2019-01-25T09:47:47.633Z,38.13
2019-01-25T09:50:20.495Z,36.13
2019-01-25T09:52:48.910Z,32.50
2019-01-25T09:55:19.525Z,41.87
2019-01-25T09:57:48.167Z,40.20
2019-01-25T10:00:29.895Z,39.63
2019-01-25T10:02:58.268Z,40.73
2019-01-25T10:05:26.653Z,33.70
2019-01-25T10:07:55.059Z,31.43
2019-01-25T10:10:23.431Z,36.70
2019-01-25T10:12:51.804Z,34.50
2019-01-25T10:15:24.019Z,43.57
2019-01-25T10:17:52.424Z,38.80
2019-01-25T10:20:20.864Z,35.77
2019-01-25T10:22:49.500Z,35.27
2019-01-25T10:25:17.863Z,31.87
2019-01-25T10:27:47.227Z,33.47
2019-01-25T10:30:19.249Z,32.33
2019-01-25T10:32:47.620Z,44.03
2019-01-25T10:35:15.996Z,36.00
2019-01-25T10:37:44.415Z,33.93
2019-01-25T10:40:15.227Z,34.47
2019-01-25T10:42:45.526Z,36.93
2019-01-25T10:45:26.431Z,36.87
2019-01-25T10:47:55.163Z,36.40
2019-01-25T10:50:23.535Z,43.63
2019-01-25T10:52:52.234Z,38.30
2019-01-25T10:55:20.922Z,41.77
2019-01-25T10:57:49.292Z,42.57
2019-01-25T11:02:42.404Z,41.60
2019-01-25T11:05:13.715Z,38.87
2019-01-25T11:07:42.095Z,34.30
2019-01-25T11:10:10.518Z,36.43
2019-01-25T11:12:39.191Z,32.43
2019-01-25T11:15:10.967Z,37.80
2019-01-25T11:17:39.383Z,36.50
2019-01-25T11:20:16.176Z,31.47
2019-01-25T11:22:45.479Z,41.37
2019-01-25T11:25:19.638Z,38.27
2019-01-25T11:27:48.119Z,39.20
2019-01-25T11:30:17.091Z,38.83
2019-01-25T11:32:46.841Z,36.67
2019-01-25T11:35:15.517Z,38.23
2019-01-25T11:37:43.925Z,40.30
2019-01-25T11:40:18.455Z,42.37
2019-01-25T11:42:46.823Z,39.23
2019-01-25T11:45:15.975Z,41.07
2019-01-25T11:47:44.363Z,39.37
2019-01-25T11:50:18.106Z,35.00
2019-01-25T11:52:46.813Z,40.60
2019-01-25T11:55:17.587Z,38.33
2019-01-25T11:57:46.053Z,31.23
2019-01-25T12:00:22.643Z,37.00
2019-01-25T12:02:51.015Z,37.50
2019-01-25T12:05:21.025Z,36.30
2019-01-25T12:07:49.442Z,34.67
2019-01-25T12:10:26.485Z,30.73
2019-01-25T12:12:55.260Z,33.40
2019-01-25T12:15:23.627Z,43.20
2019-01-25T12:17:52.004Z,35.07
2019-01-25T12:20:24.000Z,34.97
2019-01-25T12:22:52.371Z,36.70
2019-01-25T12:25:20.746Z,37.13
2019-01-25T12:27:49.148Z,37.47
2019-01-25T12:30:20.783Z,38.37
2019-01-25T12:32:49.164Z,38.07
2019-01-25T12:35:18.120Z,37.40
2019-01-25T12:37:46.488Z,34.73
2019-01-25T12:40:19.343Z,31.53
2019-01-25T12:42:48.292Z,30.50
2019-01-25T12:45:19.696Z,40.73
2019-01-25T12:47:48.067Z,36.53
2019-01-25T12:50:19.699Z,33.60
2019-01-25T12:52:48.071Z,36.17
2019-01-25T12:55:16.447Z,39.43
2019-01-25T12:57:44.872Z,39.37
2019-01-25T13:00:16.244Z,36.90
2019-01-25T13:02:44.620Z,32.93
2019-01-25T13:05:16.579Z,34.97
2019-01-25T13:07:44.946Z,36.13
2019-01-25T13:10:18.916Z,38.90
2019-01-25T13:12:47.327Z,32.73
2019-01-25T13:15:15.756Z,33.37
2019-01-25T13:17:44.340Z,36.50
2019-01-25T13:20:19.340Z,33.37
2019-01-25T13:22:47.720Z,36.73
2019-01-25T13:25:16.159Z,43.13
2019-01-25T13:27:44.564Z,40.10
2019-01-25T13:30:19.470Z,53.80
2019-01-25T13:32:47.880Z,45.97
2019-01-25T13:35:16.503Z,42.03
2019-01-25T13:37:45.907Z,36.50
2019-01-25T13:40:19.619Z,45.37
2019-01-25T13:42:49.075Z,38.43
2019-01-25T13:45:19.241Z,45.13
2019-01-25T13:47:47.792Z,33.43
2019-01-25T13:50:21.268Z,36.87
2019-01-25T13:52:49.639Z,44.87
2019-01-25T13:55:18.127Z,60.07
2019-01-25T13:57:46.544Z,37.97
2019-01-25T14:00:22.815Z,37.33
2019-01-25T14:02:51.524Z,30.77
2019-01-25T14:05:19.896Z,38.93
2019-01-25T14:07:48.272Z,34.13
2019-01-25T14:10:19.779Z,38.97
2019-01-25T14:12:48.441Z,40.27
2019-01-25T14:15:16.815Z,35.23
2019-01-25T14:17:45.229Z,38.47
2019-01-25T14:20:23.357Z,34.20
2019-01-25T14:22:52.719Z,34.80
2019-01-25T14:25:21.171Z,38.00
2019-01-25T14:27:49.544Z,43.63
2019-01-25T14:30:29.475Z,36.33
2019-01-25T14:32:57.847Z,34.67
2019-01-25T14:35:26.217Z,32.77
2019-01-25T14:37:55.668Z,33.90
2019-01-25T14:40:25.020Z,34.80
2019-01-25T14:42:53.391Z,39.10
2019-01-25T14:45:21.810Z,33.17
2019-01-25T14:47:50.180Z,49.73
2019-01-25T14:50:26.832Z,42.03
2019-01-25T14:52:55.207Z,29.97
2019-01-25T14:55:23.578Z,39.83
2019-01-25T14:57:52.659Z,30.70
2019-01-25T15:00:21.032Z,31.33
2019-01-25T15:02:49.405Z,37.60
2019-01-25T15:05:19.259Z,28.57
2019-01-25T15:07:47.623Z,35.47
2019-01-25T15:10:17.837Z,37.87
2019-01-25T15:12:46.475Z,31.70
2019-01-25T15:15:15.191Z,36.70
2019-01-25T15:17:43.891Z,48.00
2019-01-25T15:20:19.881Z,42.10
2019-01-25T15:22:48.334Z,37.47
2019-01-25T15:25:16.700Z,32.90
2019-01-25T15:27:45.467Z,39.50
2019-01-25T15:30:19.027Z,38.70
2019-01-25T15:32:47.767Z,31.67
2019-01-25T15:35:17.629Z,34.97
2019-01-25T15:37:46.395Z,38.77
2019-01-25T15:40:16.600Z,40.50
2019-01-25T15:42:46.513Z,44.30
2019-01-25T15:45:16.923Z,32.27
2019-01-25T15:47:45.460Z,29.97
2019-01-25T15:50:25.035Z,43.40
2019-01-25T15:52:53.417Z,36.97
2019-01-25T15:55:21.787Z,79.13
2019-01-25T15:57:51.243Z,35.57
2019-01-25T16:00:21.867Z,34.90
2019-01-25T16:02:50.254Z,40.77
2019-01-25T16:05:19.600Z,76.17
2019-01-25T16:07:49.752Z,42.47
2019-01-25T16:10:20.007Z,34.17
2019-01-25T16:12:48.579Z,34.80
2019-01-25T16:15:25.886Z,34.57
2019-01-25T16:17:55.062Z,31.30
2019-01-25T16:20:23.523Z,26.67
2019-01-25T16:22:53.521Z,27.97
2019-01-25T16:25:25.039Z,29.17
2019-01-25T16:27:53.740Z,26.83
2019-01-25T16:30:24.556Z,34.40
2019-01-25T16:32:52.965Z,35.27
2019-01-25T16:35:21.343Z,34.47
2019-01-25T16:37:49.710Z,27.70
2019-01-25T16:40:21.944Z,35.83
2019-01-25T16:42:50.316Z,27.30
2019-01-25T16:45:23.107Z,30.17
2019-01-25T16:47:51.517Z,33.20
2019-01-25T16:50:23.917Z,27.97
2019-01-25T16:52:49.931Z,29.13
2019-01-25T16:55:18.339Z,28.97
2019-01-25T16:57:46.719Z,29.97
2019-01-25T17:00:21.079Z,33.97
2019-01-25T17:02:50.308Z,36.13
2019-01-25T17:05:18.688Z,32.03
2019-01-25T17:07:47.149Z,26.60
2019-01-25T17:10:15.933Z,30.40
2019-01-25T17:12:44.380Z,27.13
2019-01-25T17:15:14.989Z,29.53
2019-01-25T17:17:43.407Z,46.30
2019-01-25T17:20:21.066Z,45.97
2019-01-25T17:22:44.791Z,40.27
2019-01-25T17:25:14.758Z,31.13
2019-01-25T17:27:43.123Z,28.33
2019-01-25T17:30:17.636Z,42.07
2019-01-25T17:32:46.069Z,31.27
2019-01-25T17:35:14.443Z,34.30
2019-01-25T17:37:42.819Z,34.40
2019-01-25T17:40:14.811Z,40.60
2019-01-25T17:42:43.188Z,38.27
2019-01-25T17:45:12.405Z,34.77
2019-01-25T17:47:41.983Z,41.53
2019-01-25T17:50:13.171Z,35.57
2019-01-25T17:52:41.557Z,40.50
2019-01-25T17:55:15.155Z,34.50
2019-01-25T17:57:43.840Z,37.13
2019-01-25T18:00:25.219Z,35.37
2019-01-25T18:02:53.607Z,44.90
2019-01-25T18:05:22.024Z,47.47
2019-01-25T18:07:52.156Z,33.80
2019-01-25T18:10:22.663Z,47.03
2019-01-25T18:12:51.202Z,44.10
2019-01-25T18:15:19.635Z,46.20
2019-01-25T18:17:48.018Z,43.57
2019-01-25T18:20:18.458Z,46.53
2019-01-25T18:22:46.867Z,50.13
2019-01-25T18:25:18.907Z,46.07
2019-01-25T18:27:58.016Z,50.83
2019-01-25T18:30:38.399Z,55.23
2019-01-25T18:33:06.814Z,56.33
2019-01-25T18:35:35.183Z,46.63
2019-01-25T18:38:03.740Z,81.87
2019-01-25T18:40:32.524Z,62.57
2019-01-25T18:43:00.897Z,67.90
2019-01-25T18:45:29.263Z,64.73
2019-01-25T18:47:58.838Z,64.53
2019-01-25T18:50:28.613Z,64.07
2019-01-25T18:52:57.011Z,69.00
2019-01-25T18:55:26.089Z,61.00
2019-01-25T18:57:54.459Z,63.77
2019-01-25T19:00:23.141Z,73.37
2019-01-25T19:02:51.547Z,74.37
2019-01-25T19:05:19.928Z,70.80
2019-01-25T19:07:48.299Z,71.77
2019-01-25T19:10:22.831Z,82.27
2019-01-25T19:12:51.208Z,85.30
2019-01-25T19:15:25.218Z,77.40
2019-01-25T19:17:53.684Z,80.17
2019-01-25T19:20:22.055Z,82.00
2019-01-25T19:22:50.431Z,80.47
2019-01-25T19:25:18.848Z,78.53
2019-01-25T19:27:47.631Z,78.77
2019-01-25T19:30:32.659Z,85.47
2019-01-25T19:33:01.031Z,82.27
2019-01-25T19:35:29.772Z,89.43
2019-01-25T19:37:58.628Z,91.33
2019-01-25T19:40:29.639Z,94.73
2019-01-25T19:42:58.024Z,89.60
2019-01-25T19:45:26.431Z,100.97
2019-01-25T19:47:54.804Z,76.03
2019-01-25T19:50:23.175Z,83.00
2019-01-25T19:52:55.071Z,113.77
2019-01-25T19:55:26.356Z,71.07
2019-01-25T19:57:54.728Z,70.23
2019-01-25T20:00:28.759Z,74.30
2019-01-25T20:02:57.134Z,69.53
2019-01-25T20:05:27.943Z,96.10
2019-01-25T20:07:57.407Z,78.60
2019-01-25T20:10:25.779Z,79.73
2019-01-25T20:12:54.451Z,74.57
2019-01-25T20:15:26.770Z,78.30
2019-01-25T20:17:55.147Z,81.70
2019-01-25T20:20:32.828Z,75.70
2019-01-25T20:23:01.199Z,79.10
2019-01-25T20:25:29.579Z,70.43
2019-01-25T20:27:58.423Z,69.73
2019-01-25T20:30:28.831Z,66.30
2019-01-25T20:32:57.452Z,59.83
2019-01-25T20:35:34.921Z,57.87
2019-01-25T20:38:03.292Z,66.27
2019-01-25T20:40:31.671Z,55.63
2019-01-25T20:43:01.207Z,51.93
2019-01-25T20:45:32.116Z,50.20
2019-01-25T20:48:00.477Z,50.07
2019-01-25T20:50:33.372Z,60.73
2019-01-25T20:53:01.752Z,46.40
2019-01-25T20:55:30.840Z,46.57
2019-01-25T20:57:59.715Z,51.07
2019-01-25T21:00:30.920Z,48.97
2019-01-25T21:02:59.272Z,51.80
2019-01-25T21:05:28.733Z,55.40
2019-01-25T21:07:57.103Z,54.60
2019-01-25T21:10:26.111Z,62.47
2019-01-25T21:12:54.936Z,47.37
2019-01-25T21:15:25.348Z,44.67
2019-01-25T21:17:54.079Z,40.83
2019-01-25T21:20:28.168Z,46.40
2019-01-25T21:22:56.865Z,47.90
2019-01-25T21:25:25.588Z,46.03
2019-01-25T21:27:54.414Z,51.07
2019-01-25T21:30:31.120Z,43.90
2019-01-25T21:32:59.527Z,36.87
2019-01-25T21:35:27.900Z,47.50
2019-01-25T21:37:56.271Z,46.47
2019-01-25T21:40:26.828Z,44.40
2019-01-25T21:42:55.204Z,38.00
2019-01-25T21:45:25.623Z,36.20
2019-01-25T21:47:55.085Z,43.53
2019-01-25T21:50:26.683Z,36.43
2019-01-25T21:52:55.032Z,41.10
2019-01-25T21:55:23.474Z,35.07
2019-01-25T21:57:52.122Z,36.40
2019-01-25T22:00:29.628Z,36.87
2019-01-25T22:02:58.315Z,32.57
2019-01-25T22:05:26.687Z,39.17
2019-01-25T22:07:56.584Z,34.87
2019-01-25T22:10:33.776Z,35.37
2019-01-25T22:13:03.900Z,35.27
2019-01-25T22:15:32.276Z,35.37
2019-01-25T22:18:00.998Z,32.00
2019-01-25T22:20:30.451Z,33.80
2019-01-25T22:22:58.823Z,29.10
2019-01-25T22:25:27.503Z,35.37
2019-01-25T22:27:57.047Z,29.07
2019-01-25T22:30:27.255Z,27.90
2019-01-25T22:32:55.633Z,26.50
2019-01-25T22:35:24.039Z,33.53
2019-01-25T22:37:53.291Z,28.93
2019-01-25T22:40:24.377Z,33.30
2019-01-25T22:42:52.870Z,27.87
2019-01-25T22:45:23.540Z,25.07
2019-01-25T22:47:52.235Z,28.00
2019-01-25T22:50:26.719Z,32.10
2019-01-25T22:52:55.086Z,32.10
2019-01-25T22:55:24.208Z,25.63
2019-01-25T22:57:52.630Z,30.27
2019-01-25T23:00:50.767Z,22.60
2019-01-25T23:03:25.053Z,24.93
2019-01-25T23:06:17.863Z,28.80
2019-01-25T23:08:47.727Z,28.00
2019-01-25T23:11:16.452Z,23.23
2019-01-25T23:13:44.820Z,26.50
2019-01-25T23:16:13.219Z,24.43
2019-01-25T23:18:41.589Z,26.60
2019-01-25T23:21:09.960Z,22.03
2019-01-25T23:23:38.379Z,24.53
2019-01-25T23:26:06.783Z,22.23
2019-01-25T23:28:35.151Z,21.47
2019-01-25T23:31:03.686Z,21.03
2019-01-25T23:33:32.057Z,19.00
2019-01-25T23:36:00.470Z,24.50
2019-01-25T23:38:28.927Z,21.77
2019-01-25T23:40:57.292Z,22.17
2019-01-25T23:43:25.655Z,17.87
2019-01-25T23:45:54.428Z,17.83
2019-01-25T23:48:22.795Z,18.80
2019-01-25T23:50:51.163Z,18.17
2019-01-25T23:53:20.871Z,19.00
2019-01-25T23:55:49.233Z,17.50
2019-01-25T23:58:17.602Z,15.23
